Home > Products > Valid Products > TAF

000
FTUS41 KAKQ 232100 AAA
TAFECG
TAF AMD
KECG 232106Z 2321/2418 12008KT P6SM -RA BKN090 OVC150
     FM232300 13009G15KT P6SM -RA SCT012 OVC035
     FM240100 15014G22KT 4SM -RA SCT005 OVC012
     FM240300 18016G25KT 2SM -RA SCT002 OVC007
     FM240700 20015G25KT P6SM SCT006 BKN011
     FM241400 22013G20KT P6SM SCT012 BKN025=



000
FTUS41 KAKQ 231700
TAFPHF
TAF
KPHF 231737Z 2318/2418 18005KT P6SM BKN150
     FM232300 13005KT P6SM -RA SCT024 BKN080
     FM240200 14009KT 4SM -RA BR SCT008 BKN025
     FM240400 16012G20KT 2SM -RA BR BKN008
     FM240900 19015G25KT P6SM SCT008 BKN012
     FM241500 19014G22KT P6SM BKN025=



000
FTUS41 KAKQ 231700
TAFSBY
TAF
KSBY 231737Z 2318/2418 19006KT P6SM BKN250
     FM240200 14005KT P6SM -RA SCT024 BKN080
     FM240400 13008KT 4SM -RA BR SCT008 BKN025
     FM240600 16011KT 2SM -RA BR BKN008
     FM241100 19013G20KT P6SM SCT008 BKN012
     FM241700 19014G21KT P6SM BKN025=



000
FTUS41 KAKQ 231700
TAFORF
TAF
KORF 231737Z 2318/2418 16007KT P6SM BKN150
     FM232200 15011KT P6SM BKN050
     FM240100 13009G15KT P6SM -RA SCT012 OVC025
     FM240300 15014G22KT 4SM -RA SCT005 OVC012
     FM240500 18016G25KT 2SM -RA SCT002 OVC007
     FM240800 20013G20KT P6SM SCT006 BKN011
     FM241500 22013G20KT P6SM SCT012 BKN025=



000
FTUS41 KAKQ 231700
TAFRIC
TAF
KRIC 231737Z 2318/2418 19005KT P6SM BKN150
     FM232300 14005KT P6SM -RA SCT024 BKN080
     FM240200 12006KT 4SM -RA BR SCT008 BKN025
     FM240400 13008KT 2SM -RA BR BKN008
     FM240900 19010KT P6SM SCT008 BKN012
     FM241500 19014G21KT P6SM BKN025=



000
FTUS41 KAKQ 231700
TAFECG
TAF
KECG 231737Z 2318/2418 15008KT P6SM SCT050 BKN150
     FM232200 13009G15KT P6SM -RA SCT012 OVC025
     FM240100 15014G22KT 4SM -RA SCT005 OVC012
     FM240300 18016G25KT 2SM -RA SCT002 OVC007
     FM240700 20015G25KT P6SM SCT006 BKN011
     FM241400 22013G20KT P6SM SCT012 BKN025=



000
FTUS41 KAKQ 231100
TAFORF
TAF
KORF 231135Z 2312/2412 21006KT P6SM FEW040 SCT250
     FM231400 19009KT P6SM SCT030 BKN120
     FM232200 16016G24KT 3SM -RA BKN007=



000
FTUS41 KAKQ 231100
TAFRIC
TAF
KRIC 231135Z 2312/2412 20006KT P6SM SCT250
     FM231400 20007KT P6SM SCT030 BKN120
     FM232200 16012KT 3SM -RA BKN007=



000
FTUS41 KAKQ 231100
TAFSBY
TAF
KSBY 231135Z 2312/2412 21007KT P6SM SCT250
     FM231500 19009KT P6SM SCT030 BKN120
     FM240000 16014G22KT 3SM -RA BKN007=



000
FTUS41 KAKQ 231100
TAFPHF
TAF
KPHF 231135Z 2312/2412 20004KT P6SM FEW040 SCT250
     FM231400 19009KT P6SM SCT030 BKN120
     FM232200 16015G23KT 3SM -RA BKN007=



000
FTUS41 KAKQ 231100
TAFECG
TAF
KECG 231135Z 2312/2412 00000KT P6SM SCT040 SCT250
     FM231300 15008KT P6SM SCT030 BKN120
     FM232000 14012G20KT 3SM -RA BKN007=



000
FTUS41 KAKQ 230500
TAFPHF
TAF
KPHF 230539Z 2306/2406 22004KT P6SM BKN250
     FM231100 21005KT P6SM SCT040 BKN150
     FM231600 20008KT P6SM BKN040 OVC100
     FM232200 16010KT P6SM -RA OVC040=



000
FTUS41 KAKQ 230500
TAFECG
TAF
KECG 230539Z 2306/2406 22003KT P6SM BKN250
     FM230800 21003KT P6SM FEW030 BKN120
     FM231300 17010KT P6SM BKN040 OVC100
     FM232000 14011KT 4SM RA BR OVC030=



000
FTUS41 KAKQ 230500
TAFRIC
TAF
KRIC 230539Z 2306/2406 21005KT P6SM BKN250
     FM231400 20007KT P6SM SCT040 BKN120
     FM232100 17009KT P6SM -RA SCT030 OVC060=



000
FTUS41 KAKQ 230500
TAFSBY
TAF
KSBY 230539Z 2306/2406 21006KT P6SM BKN250
     FM231300 21008KT P6SM FEW040 OVC250
     FM232000 17009KT P6SM SCT040 BKN080=



000
FTUS41 KAKQ 230500
TAFORF
TAF
KORF 230539Z 2306/2406 22007KT P6SM BKN250
     FM231100 21007KT P6SM SCT040 BKN150
     FM231600 20009KT P6SM BKN040 OVC100
     FM232200 17011KT P6SM -RA OVC035=



000
FTUS41 KAKQ 222300
TAFRIC
TAF
KRIC 222326Z 2300/2324 20007KT P6SM BKN250
     FM230600 21005KT P6SM BKN200
     FM231300 20007KT P6SM SCT040 BKN120
     FM232000 20010KT P6SM -RA SCT030 OVC060=



000
FTUS41 KAKQ 222300
TAFORF
TAF
KORF 222326Z 2300/2324 19007KT P6SM BKN250
     FM230900 20007KT P6SM SCT040 BKN150
     FM231500 20009KT P6SM BKN040 OVC100
     FM231900 17011KT P6SM -RA OVC035=



000
FTUS41 KAKQ 222300
TAFSBY
TAF
KSBY 222326Z 2300/2324 20008KT P6SM SCT250
     FM230700 21005KT P6SM OVC200
     FM231300 20006KT P6SM FEW040 OVC200
     FM232000 19010KT P6SM SCT040 BKN080=



000
FTUS41 KAKQ 222300
TAFPHF
TAF
KPHF 222326Z 2300/2324 23007KT P6SM BKN250
     FM230900 21006KT P6SM SCT040 BKN150
     FM231500 20008KT P6SM BKN040 OVC110
     FM232000 19011KT P6SM -RA OVC040=



000
FTUS41 KAKQ 222300
TAFECG
TAF
KECG 222326Z 2300/2324 17004KT P6SM BKN250
     FM230700 19005KT P6SM FEW030 BKN120
     FM231300 17010KT P6SM -RA OVC050
     FM231800 15010KT 6SM -RA BR OVC035
     FM232100 14011KT 4SM RA BR OVC030=



000
FTUS41 KAKQ 221700
TAFSBY
TAF
KSBY 221731Z 2218/2318 20010KT P6SM FEW250
     FM222100 19005KT P6SM FEW250
     FM231300 20006KT P6SM FEW040 SCT200=



000
FTUS41 KAKQ 221700
TAFPHF
TAF
KPHF 221731Z 2218/2318 23009KT P6SM FEW250
     FM222100 21007KT P6SM FEW250
     FM230900 21006KT P6SM SCT035 BKN150=



000
FTUS41 KAKQ 221700
TAFRIC
TAF
KRIC 221731Z 2218/2318 20010KT P6SM SCT250
     FM222100 19005KT P6SM FEW200
     FM231000 19005KT P6SM SCT035 BKN150=



000
FTUS41 KAKQ 221700
TAFECG
TAF
KECG 221731Z 2218/2318 19007KT P6SM FEW250
     FM222100 19004KT P6SM FEW250
     FM230700 20005KT P6SM FEW030 BKN120=



000
FTUS41 KAKQ 221700
TAFORF
TAF
KORF 221731Z 2218/2318 21009G15KT P6SM FEW250
     FM222100 21007KT P6SM FEW250
     FM230900 20007KT P6SM SCT030 BKN150=



000
FTUS41 KAKQ 221100
TAFPHF
TAF
KPHF 221139Z 2212/2312 00000KT P6SM SKC
     FM221400 21009KT P6SM FEW250=



000
FTUS41 KAKQ 221100
TAFECG
TAF
KECG 221139Z 2212/2312 00000KT P6SM SKC
     FM221430 18007KT P6SM FEW250=



000
FTUS41 KAKQ 221100
TAFORF
TAF
KORF 221139Z 2212/2312 23005KT P6SM SKC
     FM221500 21009KT P6SM FEW250=



000
FTUS41 KAKQ 221100
TAFRIC
TAF
KRIC 221139Z 2212/2312 00000KT P6SM SKC
     FM221500 20008KT P6SM FEW250=



000
FTUS41 KAKQ 221100
TAFSBY
TAF
KSBY 221139Z 2212/2312 00000KT P6SM SKC
     FM221500 20009KT P6SM FEW250=



000
FTUS41 KAKQ 220500
TAFRIC
TAF
KRIC 220521Z 2206/2306 00000KT P6SM SKC
     FM221400 20008KT P6SM FEW200=



000
FTUS41 KAKQ 220500
TAFECG
TAF
KECG 220521Z 2206/2306 04003KT P6SM SKC
     FM221500 19007KT P6SM FEW040 FEW200=



000
FTUS41 KAKQ 220500
TAFPHF
TAF
KPHF 220521Z 2206/2306 00000KT P6SM SKC
     FM221500 21009KT P6SM SKC=



000
FTUS41 KAKQ 220500
TAFSBY
TAF
KSBY 220521Z 2206/2306 00000KT P6SM SKC
     FM221500 20010KT P6SM FEW200=



000
FTUS41 KAKQ 220500
TAFORF
TAF
KORF 220521Z 2206/2306 00000KT P6SM SKC
     FM221500 20009KT P6SM SKC=



000
FTUS41 KAKQ 212300 RRA
TAFRIC
TAF
KRIC 212348Z 2200/2224 01003KT P6SM SKC
     FM220700 08003KT P6SM SKC
     FM221500 20008KT P6SM FEW200=



000
FTUS41 KAKQ 212300 RRA
TAFPHF
TAF
KPHF 212348Z 2200/2224 01004KT P6SM SKC
     FM220700 08003KT P6SM SKC
     FM221500 21010KT P6SM SKC=



000
FTUS41 KAKQ 212300 RRA
TAFORF
TAF
KORF 212348Z 2200/2224 01007KT P6SM SKC
     FM220700 06003KT P6SM SKC
     FM221500 20010KT P6SM SKC=



000
FTUS41 KAKQ 212300 RRA
TAFSBY
TAF
KSBY 212348Z 2200/2224 00000KT P6SM SKC
     FM220300 00000KT P6SM SKC
     FM221500 20012KT P6SM FEW200=



000
FTUS41 KAKQ 212300 RRA
TAFECG
TAF
KECG 212348Z 2200/2224 01007KT P6SM SKC
     FM220700 00000KT P6SM SKC
     FM221500 20008KT P6SM FEW040 SCT200=



000
FTUS41 KAKQ 211700
TAFECG
TAF
KECG 211728Z 2118/2218 33013KT P6SM SKC
     FM212200 36005KT P6SM SKC
     FM221500 20008KT P6SM FEW040 SCT200=



000
FTUS41 KAKQ 211700
TAFORF
TAF
KORF 211728Z 2118/2218 33012G18KT P6SM SKC
     FM212200 36005KT P6SM SKC
     FM221500 20010KT P6SM SKC=



000
FTUS41 KAKQ 211700
TAFRIC
TAF
KRIC 211728Z 2118/2218 33010G15KT P6SM SKC
     FM212200 36003KT P6SM SKC
     FM221500 20008KT P6SM FEW200=



000
FTUS41 KAKQ 211700
TAFPHF
TAF
KPHF 211728Z 2118/2218 33012G19KT P6SM SKC
     FM212100 36004KT P6SM SKC
     FM221500 21010KT P6SM SKC=



000
FTUS41 KAKQ 211700
TAFSBY
TAF
KSBY 211728Z 2118/2218 31014G21KT P6SM SKC
     FM212200 32006KT P6SM SKC
     FM220300 00000KT P6SM SKC
     FM221500 20012KT P6SM FEW200=



000
FTUS41 KAKQ 211100
TAFRIC
TAF
KRIC 211131Z 2112/2212 32010KT P6SM SKC
     FM211400 34010G18KT P6SM SKC
     FM212200 36004KT P6SM SKC=



000
FTUS41 KAKQ 211100
TAFORF
TAF
KORF 211131Z 2112/2212 35010KT P6SM SKC
     FM211300 34012G18KT P6SM SKC
     FM212200 36006KT P6SM SKC=



000
FTUS41 KAKQ 211100
TAFSBY
TAF
KSBY 211131Z 2112/2212 31010KT P6SM SKC
     FM211400 31014G21KT P6SM SKC
     FM212200 32006KT P6SM SKC
     FM220300 00000KT P6SM SKC=



000
FTUS41 KAKQ 211100
TAFPHF
TAF
KPHF 211131Z 2112/2212 34010KT P6SM SKC
     FM211400 33012G19KT P6SM SKC
     FM212100 36004KT P6SM SKC=



000
FTUS41 KAKQ 211100
TAFECG
TAF
KECG 211131Z 2112/2212 31010KT P6SM SKC
     FM211400 34013KT P6SM SKC
     FM212200 36005KT P6SM SKC=



000
FTUS41 KAKQ 210500
TAFSBY
TAF
KSBY 210538Z 2106/2206 32010KT P6SM SKC
     FM211400 31014G21KT P6SM SKC
     FM212200 32007KT P6SM SKC=



000
FTUS41 KAKQ 210500
TAFRIC
TAF
KRIC 210538Z 2106/2206 27006KT P6SM SKC
     FM210800 31010KT P6SM SKC
     FM211400 34010G18KT P6SM SKC
     FM212200 36004KT P6SM SKC=



000
FTUS41 KAKQ 210500
TAFECG
TAF
KECG 210538Z 2106/2206 24006KT P6SM SKC
     FM210900 30010KT P6SM SKC
     FM211400 34013KT P6SM SKC
     FM212200 36006KT P6SM SKC=



000
FTUS41 KAKQ 210500
TAFORF
TAF
KORF 210538Z 2106/2206 24008KT P6SM SKC
     FM210900 32010KT P6SM SKC
     FM211300 34012G18KT P6SM SKC
     FM212200 36006KT P6SM SKC=



000
FTUS41 KAKQ 210500
TAFPHF
TAF
KPHF 210538Z 2106/2206 27007KT P6SM SKC
     FM210900 31010KT P6SM SKC
     FM211400 33012G19KT P6SM SKC
     FM212100 35005KT P6SM SKC=



000
FTUS41 KAKQ 202300
TAFSBY
TAF
KSBY 202330Z 2100/2124 25004KT P6SM SKC
     FM210300 30010KT P6SM SKC
     FM211400 31014G21KT P6SM SKC
     FM212200 32007KT P6SM SKC=



000
FTUS41 KAKQ 202300
TAFECG
TAF
KECG 202330Z 2100/2124 23007KT P6SM SKC
     FM210700 30010KT P6SM SKC
     FM211400 34013KT P6SM SKC
     FM212200 36008KT P6SM SKC=



000
FTUS41 KAKQ 202300
TAFRIC
TAF
KRIC 202330Z 2100/2124 24006KT P6SM SKC
     FM210300 31010KT P6SM SKC
     FM211400 34010G15KT P6SM SKC
     FM212200 36004KT P6SM SKC=



000
FTUS41 KAKQ 202300
TAFPHF
TAF
KPHF 202330Z 2100/2124 26007KT P6SM SKC
     FM210400 31010KT P6SM SKC
     FM211400 33012G19KT P6SM SKC
     FM212100 35005KT P6SM SKC=



000
FTUS41 KAKQ 202300
TAFORF
TAF
KORF 202330Z 2100/2124 24008KT P6SM SKC
     FM210500 32010KT P6SM SKC
     FM211300 34012G18KT P6SM SKC
     FM212200 36008KT P6SM SKC=



    US Dept of Commerce
    National Oceanic and Atmospheric Administration
    National Weather Service
    1325 East West Highway
    Silver Spring, MD 20910
    Page Author: NWS Internet Services Team
Disclaimer
Information Quality
Credits
Glossary
Privacy Policy
Freedom of Information Act (FOIA)
About Us
Career Opportunities